Time;durP1;ratioP1;P1;durP2;ratioP2;P2;SDS_P1;SDS_P2;PMS_P1;PMS_P2;Temp;Humidity;BMP_temperature;BMP_pressure;BME280_temperature;BME280_humidity;BME280_pressure;Samples;Min_cycle;Max_cycle;Signal;HPM_P1;HPM_P2
2022/06/10 14:17:50;;;;;;;3.37;1.33;;;26.70;99.90;;;;;;4967280;27;4307957;-80
2022/06/10 14:20:17;;;;;;;5.03;1.53;;;26.50;99.90;;;;;;5097309;28;20221;-81
2022/06/10 14:23:40;;;;;;;;;;;;;;;;;;;;;
2022/06/10 14:26:24;;;;;;;5.10;1.60;;;26.90;99.90;;;;;;5095236;28;20943;-80
2022/06/10 14:29:24;;;;;;;4.10;1.43;;;27.80;99.90;;;;;;5101118;28;20911;-80
2022/06/10 14:44:19;;;;;;;3.00;1.40;;;31.20;97.00;;;;;;5048271;28;20534;-82
2022/06/10 14:47:04;;;;;;;2.87;1.27;;;31.60;92.30;;;;;;5032620;28;20505;-83
2022/06/10 14:49:43;;;;;;;2.10;1.00;;;31.70;90.40;;;;;;5031860;28;20846;-83
2022/06/10 14:52:21;;;;;;;4.93;1.33;;;33.30;79.40;;;;;;5031728;28;20417;-82
2022/06/10 14:54:47;;;;;;;5.83;1.40;;;34.40;77.00;;;;;;5031950;28;20476;-83
2022/06/10 14:57:25;;;;;;;3.37;1.67;;;35.00;76.00;;;;;;5031307;28;20952;-82
2022/06/10 14:59:52;;;;;;;3.17;1.23;;;37.90;57.80;;;;;;5031574;28;20951;-83
2022/06/10 15:02:18;;;;;;;3.07;1.40;;;38.10;58.10;;;;;;5031807;28;20418;-83
2022/06/10 15:07:34;;;;;;;2.80;1.17;;;36.10;52.40;;;;;;5017380;28;20525;-83
2022/06/10 15:10:01;;;;;;;2.80;1.40;;;34.20;53.10;;;;;;5030926;28;20712;-83
2022/06/10 15:12:29;;;;;;;2.50;1.17;;;33.10;55.80;;;;;;5032367;28;20418;-83
2022/06/10 15:14:56;;;;;;;2.73;1.20;;;34.40;58.10;;;;;;5032331;28;20511;-81
2022/06/10 15:17:28;;;;;;;2.00;1.00;;;35.50;55.30;;;;;;5031301;28;20438;-81
2022/06/10 15:19:56;;;;;;;3.03;1.30;;;35.60;53.90;;;;;;5031850;28;20437;-82
2022/06/10 15:22:31;;;;;;;2.97;1.13;;;35.90;52.90;;;;;;5031189;28;20422;-82
2022/06/10 15:24:59;;;;;;;3.20;1.70;;;35.40;52.40;;;;;;5031073;28;21073;-82
2022/06/10 15:27:25;;;;;;;2.73;1.23;;;36.60;53.50;;;;;;5023932;28;20497;-80
2022/06/10 15:29:51;;;;;;;2.63;1.10;;;36.80;51.70;;;;;;5017813;28;20423;-83
2022/06/10 15:32:19;;;;;;;2.10;0.90;;;35.90;51.60;;;;;;5017412;28;20501;-84
2022/06/10 15:43:03;;;;;;;3.07;1.50;;;31.20;57.90;;;;;;5034948;28;20434;-79
2022/06/10 15:45:29;;;;;;;2.30;1.10;;;30.40;61.10;;;;;;5017282;28;20843;-80
2022/06/10 15:47:55;;;;;;;2.23;1.30;;;29.80;63.80;;;;;;5017309;28;20422;-80
2022/06/10 15:50:22;;;;;;;8.93;3.17;;;29.20;65.70;;;;;;5017612;28;20176;-78
2022/06/10 15:52:48;;;;;;;3.30;1.40;;;28.50;72.30;;;;;;5016734;28;20918;-79
2022/06/10 15:58:22;;;;;;;4.33;1.67;;;28.10;74.40;;;;;;5034803;28;20410;-80
2022/06/10 16:00:50;;;;;;;3.80;1.40;;;27.80;78.20;;;;;;5017161;28;20416;-82
2022/06/10 16:03:17;;;;;;;2.50;1.37;;;27.60;81.00;;;;;;5016974;28;20930;-82
2022/06/10 16:05:44;;;;;;;2.80;1.50;;;27.40;85.00;;;;;;5016794;28;20463;-81
2022/06/10 16:08:11;;;;;;;3.20;1.60;;;27.10;87.50;;;;;;5014299;28;20442;-81
2022/06/10 16:10:40;;;;;;;3.10;1.70;;;27.00;90.90;;;;;;5016784;28;20431;-81
2022/06/10 16:13:14;;;;;;;3.60;1.87;;;26.80;92.90;;;;;;5018097;28;20506;-79
2022/06/10 16:15:58;;;;;;;2.70;1.30;;;26.70;92.10;;;;;;5018660;28;20431;-80
2022/06/10 16:18:25;;;;;;;3.60;1.40;;;26.60;93.20;;;;;;5014048;28;20422;-80
2022/06/10 16:20:53;;;;;;;2.43;1.37;;;26.50;94.50;;;;;;5014795;28;20446;-80
2022/06/10 16:23:22;;;;;;;3.70;1.50;;;26.30;96.60;;;;;;5014267;28;20814;-79
2022/06/10 16:25:56;;;;;;;2.67;1.57;;;26.20;95.20;;;;;;5008466;28;21011;-79
2022/06/10 16:28:28;;;;;;;3.40;1.50;;;26.00;96.50;;;;;;5017261;28;20514;-79
2022/06/10 16:30:54;;;;;;;2.37;1.43;;;25.80;99.30;;;;;;5017787;28;20451;-79
2022/06/10 16:33:23;;;;;;;3.33;1.20;;;25.80;99.90;;;;;;5017046;28;20465;-79
2022/06/10 16:35:49;;;;;;;2.73;1.60;;;25.60;99.80;;;;;;5016206;28;20474;-79
2022/06/10 16:38:18;;;;;;;2.47;1.30;;;25.50;99.90;;;;;;5015643;28;20489;-79
2022/06/10 16:40:46;;;;;;;2.70;1.33;;;25.30;99.90;;;;;;5016418;28;20426;-79
2022/06/10 16:43:14;;;;;;;4.23;1.73;;;25.30;99.90;;;;;;5013503;28;20451;-79
2022/06/10 16:45:41;;;;;;;2.97;1.20;;;25.20;99.90;;;;;;5010888;28;20460;-77
2022/06/10 16:48:16;;;;;;;2.53;1.40;;;25.10;99.90;;;;;;5012526;28;20423;-79
2022/06/10 16:50:47;;;;;;;2.97;1.53;;;25.30;99.90;;;;;;5017450;28;20429;-78
2022/06/10 16:53:14;;;;;;;2.33;1.20;;;25.50;99.90;;;;;;5015353;28;20473;-75
2022/06/10 16:55:41;;;;;;;3.63;2.13;;;25.60;99.90;;;;;;5013558;28;20422;-74
2022/06/10 16:58:20;;;;;;;4.63;1.50;;;25.60;99.90;;;;;;5025053;28;20423;-80
2022/06/10 17:00:46;;;;;;;3.30;1.57;;;25.70;99.90;;;;;;5027769;28;20434;-80
2022/06/10 17:03:15;;;;;;;3.23;1.70;;;25.60;99.90;;;;;;5027816;28;20442;-80
2022/06/10 17:05:44;;;;;;;3.33;1.60;;;25.60;99.90;;;;;;5025851;28;20463;-80
2022/06/10 17:08:24;;;;;;;2.47;1.37;;;25.60;99.90;;;;;;5027052;28;20490;-80
2022/06/10 17:10:55;;;;;;;2.30;1.37;;;25.60;99.90;;;;;;5025439;28;20415;-80
2022/06/10 17:13:29;;;;;;;2.97;1.67;;;25.60;99.90;;;;;;5025106;28;20415;-80
2022/06/10 17:15:55;;;;;;;2.90;1.50;;;25.60;99.90;;;;;;5024077;28;20832;-80
2022/06/10 17:18:25;;;;;;;5.07;1.50;;;25.50;99.90;;;;;;5026116;28;21003;-80
2022/06/10 17:20:54;;;;;;;3.00;1.50;;;25.40;99.90;;;;;;5023199;28;20518;-79
2022/06/10 17:23:22;;;;;;;2.77;1.60;;;25.40;99.90;;;;;;5023281;28;20419;-81
2022/06/10 17:25:52;;;;;;;4.00;1.80;;;25.30;99.90;;;;;;5021650;28;20497;-81
2022/06/10 17:28:21;;;;;;;2.77;1.40;;;25.30;99.90;;;;;;5021029;28;20465;-80
2022/06/10 17:30:53;;;;;;;2.50;1.50;;;25.30;99.90;;;;;;5023307;28;20423;-80
2022/06/10 17:33:25;;;;;;;4.43;2.50;;;25.30;99.90;;;;;;5020607;28;20426;-80
2022/06/10 17:35:53;;;;;;;4.20;2.30;;;25.30;99.90;;;;;;5020544;28;20451;-78
2022/06/10 17:38:26;;;;;;;3.87;1.97;;;25.40;99.90;;;;;;5018350;28;20514;-83
2022/06/10 17:40:56;;;;;;;4.23;1.90;;;25.50;99.90;;;;;;5014823;28;20427;-83
2022/06/10 17:43:25;;;;;;;2.50;1.50;;;25.50;99.90;;;;;;5015465;28;20443;-83
2022/06/10 17:45:52;;;;;;;3.13;1.43;;;25.50;99.90;;;;;;5014603;28;20478;-81
2022/06/10 17:48:17;;;;;;;3.90;1.40;;;25.40;99.90;;;;;;5015504;28;20415;-82
2022/06/10 17:50:44;;;;;;;3.23;1.57;;;25.40;99.90;;;;;;5014978;28;20984;-82
2022/06/10 17:53:10;;;;;;;2.90;1.67;;;25.30;99.90;;;;;;5014775;28;20184;-81
2022/06/10 17:55:37;;;;;;;3.03;1.60;;;25.30;99.90;;;;;;5015543;28;20434;-83
2022/06/10 17:58:05;;;;;;;3.23;1.50;;;25.30;99.90;;;;;;5015620;28;20418;-79
2022/06/10 18:00:37;;;;;;;3.47;1.50;;;25.20;99.90;;;;;;5018381;28;20455;-81
2022/06/10 18:03:16;;;;;;;4.47;1.70;;;25.10;99.90;;;;;;5018532;28;20415;-79
2022/06/10 18:05:44;;;;;;;3.73;1.67;;;25.10;99.90;;;;;;5017905;28;20467;-80
2022/06/10 18:08:16;;;;;;;3.90;1.97;;;25.00;99.90;;;;;;5017176;28;20920;-79
2022/06/10 18:10:46;;;;;;;3.03;1.87;;;24.90;99.90;;;;;;5016748;28;20430;-79
2022/06/10 18:16:01;;;;;;;3.83;1.40;;;24.80;99.90;;;;;;5035071;28;20457;-80
2022/06/10 18:18:31;;;;;;;4.00;1.63;;;24.80;99.90;;;;;;5017093;28;20438;-80
2022/06/10 18:20:57;;;;;;;4.20;1.80;;;24.70;99.90;;;;;;5017253;28;20896;-79
2022/06/10 18:23:29;;;;;;;3.17;1.60;;;24.70;99.90;;;;;;5016075;28;20451;-79
2022/06/10 18:26:01;;;;;;;2.70;1.50;;;24.70;99.90;;;;;;5016128;28;20218;-80
2022/06/10 18:28:27;;;;;;;3.00;1.50;;;24.60;99.90;;;;;;5016652;28;20414;-79
2022/06/10 18:30:58;;;;;;;4.17;2.00;;;24.60;99.90;;;;;;5016404;28;20415;-79
2022/06/10 18:33:24;;;;;;;2.70;1.73;;;24.60;99.90;;;;;;5016494;28;20410;-79
2022/06/10 18:35:52;;;;;;;6.00;1.80;;;24.50;99.90;;;;;;5015633;28;20970;-79
2022/06/10 18:38:19;;;;;;;2.30;1.47;;;;;;;;;;5016077;28;20797;-79
2022/06/10 18:40:50;;;;;;;3.30;1.40;;;24.40;99.90;;;;;;5015909;28;20415;-79
2022/06/10 18:43:31;;;;;;;4.10;1.70;;;24.30;99.90;;;;;;5015630;28;20439;-79
2022/06/10 18:46:11;;;;;;;4.20;1.50;;;24.30;99.90;;;;;;5014863;28;20470;-80
2022/06/10 18:48:48;;;;;;;2.30;1.30;;;24.20;99.90;;;;;;5015854;28;20450;-79
2022/06/10 18:51:18;;;;;;;3.60;1.60;;;24.20;99.90;;;;;;5025011;28;20419;-81
2022/06/10 18:53:45;;;;;;;5.40;1.73;;;24.10;99.90;;;;;;5022243;28;20510;-81
2022/06/10 18:56:14;;;;;;;3.07;1.63;;;24.00;99.90;;;;;;5022586;28;20534;-81
2022/06/10 18:58:40;;;;;;;3.27;1.80;;;23.90;99.90;;;;;;5023563;28;20416;-80
2022/06/10 19:01:32;;;;;;;2.73;1.70;;;23.80;99.90;;;;;;5023178;28;20421;-81
2022/06/10 19:03:58;;;;;;;3.23;1.67;;;23.80;99.90;;;;;;5025464;28;20656;-81
2022/06/10 19:06:25;;;;;;;3.10;1.70;;;23.60;99.90;;;;;;5026055;28;20494;-80
2022/06/10 19:08:52;;;;;;;2.83;1.70;;;23.60;99.90;;;;;;5017873;28;20832;-79
2022/06/10 19:11:25;;;;;;;4.10;1.70;;;23.50;99.90;;;;;;5016723;28;20415;-80
2022/06/10 19:13:51;;;;;;;3.50;1.50;;;23.40;99.90;;;;;;5017092;28;20422;-80
2022/06/10 19:16:21;;;;;;;3.40;1.67;;;23.30;99.90;;;;;;5017801;28;20439;-79
2022/06/10 19:18:54;;;;;;;3.70;1.77;;;23.30;99.90;;;;;;5017629;28;20462;-80
2022/06/10 19:21:27;;;;;;;3.00;1.73;;;;;;;;;;5018182;28;20411;-80
2022/06/10 19:23:54;;;;;;;2.93;1.77;;;23.10;99.90;;;;;;5018125;28;20839;-80
2022/06/10 19:26:19;;;;;;;2.60;1.30;;;23.00;99.90;;;;;;5017431;28;20497;-80
2022/06/10 19:28:45;;;;;;;4.33;1.50;;;22.90;99.90;;;;;;5017506;28;20415;-80
2022/06/10 19:31:21;;;;;;;3.30;1.40;;;22.90;99.90;;;;;;5017179;28;20176;-79
2022/06/10 19:33:51;;;;;;;3.70;1.90;;;22.80;99.90;;;;;;5017739;28;20164;-81
2022/06/10 19:36:23;;;;;;;2.67;1.60;;;22.70;99.90;;;;;;5017281;28;20534;-80
2022/06/10 19:38:50;;;;;;;3.63;1.60;;;22.70;99.90;;;;;;5020605;28;20950;-80
2022/06/10 19:41:17;;;;;;;3.60;2.00;;;22.70;99.90;;;;;;5030736;28;20418;-81
2022/06/10 19:46:42;;;;;;;2.90;1.53;;;22.60;99.90;;;;;;5013896;28;20475;-80
2022/06/10 19:49:18;;;;;;;2.67;1.50;;;22.50;99.90;;;;;;5027367;28;20433;-80
2022/06/10 19:51:44;;;;;;;4.10;1.60;;;22.50;99.90;;;;;;5027209;28;21064;-80
2022/06/10 19:54:12;;;;;;;3.50;1.40;;;22.50;99.90;;;;;;5026022;28;20934;-80
2022/06/10 19:56:38;;;;;;;4.27;2.00;;;22.40;99.90;;;;;;5025925;28;20431;-80
2022/06/10 19:59:05;;;;;;;3.60;1.87;;;22.40;99.90;;;;;;5025522;28;20573;-80
2022/06/10 20:01:40;;;;;;;2.90;1.73;;;22.30;99.90;;;;;;5025367;28;20945;-80
2022/06/10 20:04:31;;;;;;;3.47;1.70;;;22.20;99.90;;;;;;5024106;28;20407;-80
2022/06/10 20:07:16;;;;;;;3.27;1.70;;;22.20;99.90;;;;;;5023244;28;20474;-81
2022/06/10 20:09:54;;;;;;;2.80;1.60;;;22.10;99.90;;;;;;5023194;28;20419;-80
2022/06/10 20:12:24;;;;;;;3.90;1.80;;;22.10;99.90;;;;;;5022049;28;20423;-80
2022/06/10 20:14:51;;;;;;;2.80;1.57;;;22.10;99.90;;;;;;5022327;28;20425;-80
2022/06/10 20:17:41;;;;;;;4.37;1.67;;;22.10;99.90;;;;;;5022140;28;20435;-80
2022/06/10 20:20:26;;;;;;;3.20;1.70;;;22.00;99.90;;;;;;5019580;28;20506;-79
2022/06/10 20:22:53;;;;;;;2.87;1.77;;;22.00;99.90;;;;;;5017125;28;20431;-82
2022/06/10 20:25:26;;;;;;;3.50;2.07;;;22.00;99.90;;;;;;5016381;28;20915;-82
2022/06/10 20:27:52;;;;;;;2.87;1.90;;;22.00;99.90;;;;;;5019217;23;21006;-83
2022/06/10 20:30:18;;;;;;;3.30;2.20;;;22.00;99.90;;;;;;4997948;28;20421;-84
2022/06/10 20:32:50;;;;;;;3.33;1.80;;;22.00;99.90;;;;;;4998632;28;20786;-84
2022/06/10 20:35:30;;;;;;;3.87;1.90;;;22.00;99.90;;;;;;4997025;28;20428;-84
2022/06/10 20:37:57;;;;;;;4.03;1.80;;;22.00;99.90;;;;;;4998295;28;20440;-84
2022/06/10 20:40:29;;;;;;;4.60;2.05;;;21.90;99.90;;;;;;4995842;28;20412;-84
2022/06/10 20:42:56;;;;;;;2.70;1.60;;;22.00;99.90;;;;;;4998338;28;20247;-85
2022/06/10 20:45:23;;;;;;;3.00;2.07;;;22.00;99.90;;;;;;4997229;28;20467;-83
2022/06/10 20:47:51;;;;;;;2.90;1.80;;;22.10;99.90;;;;;;4995326;28;20527;-84
2022/06/10 20:50:29;;;;;;;3.33;1.93;;;22.10;99.90;;;;;;4997397;28;20413;-84
2022/06/10 20:52:56;;;;;;;3.07;2.00;;;22.10;99.90;;;;;;4997219;28;20444;-84
2022/06/10 20:55:32;;;;;;;3.40;1.67;;;22.10;99.90;;;;;;4996997;28;20417;-83
2022/06/10 20:57:58;;;;;;;2.87;1.60;;;22.00;99.90;;;;;;4995863;28;20467;-85
2022/06/10 21:00:26;;;;;;;3.20;1.57;;;22.00;99.90;;;;;;4998024;28;20869;-84
2022/06/10 21:03:01;;;;;;;3.13;1.83;;;22.10;99.90;;;;;;4997563;28;20461;-84
2022/06/10 21:08:19;;;;;;;3.33;1.80;;;22.00;99.90;;;;;;4998356;28;20523;-85
2022/06/10 21:10:51;;;;;;;3.30;1.80;;;22.00;99.90;;;;;;4996264;28;20417;-84
2022/06/10 21:13:19;;;;;;;5.93;2.00;;;22.00;99.90;;;;;;4995988;28;20457;-83
2022/06/10 21:15:49;;;;;;;2.50;1.50;;;21.90;99.90;;;;;;4993217;28;20416;-83
2022/06/10 21:18:30;;;;;;;4.30;1.90;;;21.90;99.90;;;;;;4994941;28;20941;-83
2022/06/10 21:20:59;;;;;;;3.20;1.97;;;21.90;99.90;;;;;;4994412;28;20424;-84
2022/06/10 21:23:28;;;;;;;2.90;1.80;;;21.90;99.90;;;;;;4995414;28;20417;-83
2022/06/10 21:25:55;;;;;;;2.80;1.47;;;21.90;99.90;;;;;;4992891;28;20491;-84
2022/06/10 21:28:22;;;;;;;6.13;2.23;;;21.90;99.90;;;;;;4993781;28;20464;-84
2022/06/10 21:30:52;;;;;;;2.77;1.70;;;22.00;99.90;;;;;;4994830;28;20409;-84
2022/06/10 21:33:28;;;;;;;4.53;1.80;;;21.90;99.90;;;;;;4993866;28;20424;-84
2022/06/10 21:35:54;;;;;;;6.73;1.83;;;21.90;99.90;;;;;;4994795;28;20411;-84
2022/06/10 21:38:21;;;;;;;3.47;1.80;;;21.90;99.90;;;;;;4994680;28;20441;-84
2022/06/10 21:40:47;;;;;;;3.80;1.60;;;21.90;99.90;;;;;;4995215;28;20441;-84
2022/06/10 21:45:59;;;;;;;3.63;2.40;;;21.90;99.90;;;;;;4996753;28;20472;-85
2022/06/10 21:48:33;;;;;;;2.70;1.80;;;21.80;99.90;;;;;;5000368;28;20436;-84
2022/06/10 21:51:01;;;;;;;2.67;1.57;;;21.90;99.90;;;;;;4998599;28;20932;-84
2022/06/10 21:53:29;;;;;;;4.10;1.80;;;21.80;99.90;;;;;;4998304;28;20420;-85
2022/06/10 21:55:57;;;;;;;3.03;1.80;;;21.80;99.90;;;;;;4999826;28;20421;-85
2022/06/10 21:58:27;;;;;;;3.83;1.87;;;21.80;99.90;;;;;;4995644;28;20504;-84
2022/06/10 22:00:58;;;;;;;2.93;1.57;;;21.70;99.90;;;;;;4995778;28;20419;-85
2022/06/10 22:03:36;;;;;;;2.90;1.73;;;21.80;99.90;;;;;;4995499;28;20413;-84
2022/06/10 22:06:18;;;;;;;6.63;2.00;;;21.80;99.90;;;;;;4996376;28;20475;-83
2022/06/10 22:08:45;;;;;;;3.23;1.60;;;21.80;99.90;;;;;;4996445;28;20944;-83
2022/06/10 22:11:15;;;;;;;2.63;1.60;;;21.70;99.90;;;;;;4996219;28;20826;-85
2022/06/10 22:13:40;;;;;;;4.17;2.20;;;21.70;99.90;;;;;;4997564;28;20423;-83
2022/06/10 22:16:26;;;;;;;3.17;2.10;;;21.70;99.90;;;;;;4998438;28;20483;-85
2022/06/10 22:18:51;;;;;;;5.23;1.80;;;21.60;99.90;;;;;;4998366;28;20695;-85
2022/06/10 22:21:17;;;;;;;2.87;1.93;;;21.70;99.90;;;;;;4998494;28;20421;-85
2022/06/10 22:23:43;;;;;;;3.10;1.93;;;21.60;99.90;;;;;;4998729;28;20192;-84
2022/06/10 22:26:10;;;;;;;3.03;1.90;;;21.60;99.90;;;;;;4998099;28;20201;-84
2022/06/10 22:28:39;;;;;;;2.80;1.77;;;21.60;99.90;;;;;;4998353;28;20213;-85
2022/06/10 22:31:05;;;;;;;3.00;1.83;;;21.60;99.90;;;;;;4998577;28;20408;-85
2022/06/10 22:33:37;;;;;;;2.97;1.60;;;21.50;99.90;;;;;;4996633;28;20863;-85
2022/06/10 22:36:04;;;;;;;3.40;2.00;;;21.50;99.90;;;;;;4995990;28;20212;-84
2022/06/10 22:38:33;;;;;;;3.10;1.43;;;21.40;99.90;;;;;;5000397;28;20437;-84
2022/06/10 22:41:02;;;;;;;6.07;2.07;;;21.40;99.90;;;;;;4999788;28;20877;-83
2022/06/10 22:43:28;;;;;;;3.10;2.47;;;21.40;99.90;;;;;;5001150;28;20445;-84
2022/06/10 22:46:03;;;;;;;3.37;1.77;;;21.40;99.90;;;;;;5001194;28;20480;-84
2022/06/10 22:48:30;;;;;;;5.23;1.90;;;21.50;99.90;;;;;;4998991;28;20958;-84
2022/06/10 22:50:57;;;;;;;2.60;1.63;;;21.50;99.90;;;;;;4999298;28;20457;-84
2022/06/10 22:53:24;;;;;;;3.90;1.63;;;21.40;99.90;;;;;;5000804;28;20452;-84
2022/06/10 22:55:50;;;;;;;3.10;1.93;;;21.40;99.90;;;;;;5000031;28;20483;-85
2022/06/10 22:58:20;;;;;;;4.30;1.70;;;21.40;99.90;;;;;;5000732;28;20445;-83
2022/06/10 23:00:48;;;;;;;3.00;1.60;;;21.40;99.90;;;;;;5000796;28;20245;-84
2022/06/10 23:03:32;;;;;;;4.80;1.60;;;21.40;99.90;;;;;;5000182;28;20416;-84
2022/06/10 23:11:34;;;;;;;3.70;2.00;;;21.40;99.90;;;;;;4999685;28;20411;-82
2022/06/10 23:14:00;;;;;;;3.03;1.70;;;21.30;99.90;;;;;;4999395;28;20419;-81
2022/06/10 23:16:31;;;;;;;4.63;2.20;;;21.30;99.90;;;;;;4999063;28;20405;-80
2022/06/10 23:18:57;;;;;;;6.03;1.83;;;21.30;99.90;;;;;;4999701;28;20793;-82
2022/06/10 23:21:25;;;;;;;3.17;1.57;;;21.30;99.90;;;;;;4999030;28;20421;-81
2022/06/10 23:23:51;;;;;;;3.33;1.87;;;21.30;99.90;;;;;;4999076;28;20565;-81
2022/06/10 23:26:21;;;;;;;4.30;1.83;;;21.30;99.90;;;;;;4999071;28;20539;-80
2022/06/10 23:28:47;;;;;;;2.73;1.67;;;21.20;99.90;;;;;;4998970;28;20456;-81
2022/06/10 23:31:28;;;;;;;3.17;1.80;;;21.20;99.90;;;;;;4998866;28;20413;-82
2022/06/10 23:33:55;;;;;;;5.10;1.90;;;21.10;99.90;;;;;;4997646;28;20594;-81
2022/06/10 23:36:27;;;;;;;3.27;1.90;;;21.10;99.90;;;;;;4998293;28;20496;-85
2022/06/10 23:38:53;;;;;;;3.17;1.73;;;21.10;99.90;;;;;;4999161;28;20416;-84
2022/06/10 23:41:20;;;;;;;5.90;2.00;;;21.20;99.90;;;;;;4998529;28;20510;-83
2022/06/10 23:43:48;;;;;;;3.83;1.97;;;21.20;99.90;;;;;;4997031;28;20732;-84
2022/06/10 23:51:58;;;;;;;4.17;1.80;;;21.20;99.90;;;;;;4998144;28;20416;-85
2022/06/10 23:54:27;;;;;;;5.97;2.07;;;21.10;99.90;;;;;;4997837;28;20462;-84
2022/06/10 23:56:54;;;;;;;3.37;2.20;;;21.10;99.90;;;;;;4996191;28;20440;-84
2022/06/10 23:59:27;;;;;;;4.60;2.10;;;21.00;99.90;;;;;;4997698;28;20793;-85
